หน้าหลัก
METAR-TAF:

METAR-TAF

ท่าอากาศยาน :

Shannon, ไอร์แลนด์

ละติจูด: 52-42N, ลองจิจูด: 008-55W, ความสูง: 14 ม.

การสังเกตสภาพอากาศปัจจุบัน

รายงานได้ทำขึ้นเมื่อ 21 นาทีที่แล้ว ณ เวลา 00:00 UTC
ลม 6 นอตจากเหนือ
อุณหภูมิ 8°C
ความชื้น 81%
ความกดอากาศ 1024 hPa
ทัศนวิสัย 10 กม. หรือมากกว่า
ไม่มีเมฆต่ำกว่า 1,500 ม. และไม่มีเมฆคิวมูโลนิมบัส

METAR: EINN 190000Z 35006KT CAVOK 08/05 Q1024 NOSIG

เวลา: 01:21 (00:21 UTC)

การพยากรณ์

รายงานได้ทำขึ้นเมื่อ 1 ชั่วโมงและ 21 นาทีที่แล้ว ณ เวลา 23:00 UTC
การพยากรณ์มีผลตั้งแต่วันที่ 19 ณ เวลา 00 UTC จนถึงวันที่ 19 ณ เวลา 24 UTC
ลม 7 นอตจากเหนือ/ตะวันตกเฉียงเหนือ
ทัศนวิสัย 10 กม. หรือมากกว่า
มีเมฆน้อยที่ความสูง 4500 ฟุต
กำลังกลายเป็น
ตั้งแต่วันที่ 19 ณ เวลา 11 UTC จนถึงวันที่ 19 ณ เวลา 13 UTC
ลม 10 นอตจากตะวันตก/ตะวันตกเฉียงเหนือ
กำลังกลายเป็น
ตั้งแต่วันที่ 19 ณ เวลา 20 UTC จนถึงวันที่ 19 ณ เวลา 22 UTC
ลม 5 นอตจากตะวันตก

TAF: EINN 182300Z 1900/1924 33007KT 9999 FEW045 BECMG 1911/1913 29010KT BECMG 1920/1922 26005KT

สังเกตการณ์สภาพอากาศและพยากรณ์อากาศของสนามบินมากกว่า 4000 แห่ง (รายงาน METAR และ TAF).

สถานีที่ดูได้จะแสดงไว้ด้วยจุดสีเหลืองและสีแดงบนแผนที่.

เลื่อนเมาส์ไปเหนือจุดเพื่อดูชื่อสถานี.

แล้วคลิกเพื่อดูสังเกตการณ์และการพยากรณ์สภาพอากาศ.

ในการเปลี่ยนแผนที่: คลิกที่ปุ่มสีเขียวที่มีกากบาทสีดำเพื่อซูมเข้า; ที่ปุ่มสีเขียวที่มีขีดเพื่อซูมออก; หรือที่ลูกศรสีเขียวเพื่อไปยังแผนที่ที่อยู่ติดกัน.


METAR-TAF: